Weather at Hakodate Airport

Public forecast

Using degrees Celsius for public forecast. Weather courtesy of forecast.io.

Current aviation weather report (METAR) for Hakodate Airport

Retrieved 2021/10/19 21:10 UTC (32 minutes ago):

RJCH 192110Z 06007KT 9999 FEW012 SCT030 BKN060 12/10 Q1001 RMK 1ST012 3CU030 5CU060 A2958

Aviation forecast (TAF) for Hakodate Airport

Retrieved 2021/10/19 18:28 UTC (3 hours ago):

TAF RJCH 191711Z 1918/2100 09005KT 9999 -SHRA FEW008 BKN025 TEMPO 1918/1921 4000 SHRA BR FEW008 BKN025 FEW025CB TEMPO 1921/2003 3000 TSRA BR FEW008 BKN025 FEW025CB BECMG 2001/2003 33018KT TEMPO 2003/2006 33020G30KT